createdAt,value
2018-03-29T00:02:14.420Z,74.18
2018-03-29T00:04:40.681Z,74.16
2018-03-29T00:07:07.797Z,74.70
2018-03-29T00:09:34.066Z,75.60
2018-03-29T00:12:01.115Z,75.80
2018-03-29T00:14:28.123Z,75.87
2018-03-29T00:16:54.407Z,75.68
2018-03-29T00:19:20.775Z,75.56
2018-03-29T00:21:47.068Z,75.50
2018-03-29T00:24:13.374Z,75.31
2018-03-29T00:26:39.752Z,75.31
2018-03-29T00:29:06.070Z,75.22
2018-03-29T00:31:32.339Z,75.30
2018-03-29T00:33:58.640Z,75.07
2018-03-29T00:36:24.920Z,75.05
2018-03-29T00:38:51.994Z,74.97
2018-03-29T00:41:18.278Z,74.68
2018-03-29T00:43:44.606Z,74.23
2018-03-29T00:46:10.895Z,73.95
2018-03-29T00:48:37.180Z,73.53
2018-03-29T00:51:03.521Z,73.59
2018-03-29T00:53:44.093Z,74.02
2018-03-29T00:56:10.408Z,74.41
2018-03-29T00:58:36.732Z,74.57
2018-03-29T01:01:03.060Z,74.88
2018-03-29T01:03:29.360Z,74.75
2018-03-29T01:05:55.678Z,74.91
2018-03-29T01:08:21.983Z,74.89
2018-03-29T01:10:48.293Z,75.33
2018-03-29T01:13:14.576Z,75.14
2018-03-29T01:15:40.927Z,75.03
2018-03-29T01:18:07.283Z,75.38
2018-03-29T01:20:33.599Z,74.85
2018-03-29T01:22:59.933Z,74.67
2018-03-29T01:25:26.243Z,74.67
2018-03-29T01:27:52.536Z,74.51
2018-03-29T01:30:18.877Z,74.60
2018-03-29T01:32:45.187Z,74.32
2018-03-29T01:35:11.488Z,74.65
2018-03-29T01:37:37.806Z,75.02
2018-03-29T01:40:04.068Z,74.64
2018-03-29T01:42:30.336Z,74.50
2018-03-29T01:44:56.642Z,74.17
2018-03-29T01:47:22.917Z,74.08
2018-03-29T01:49:49.272Z,74.02
2018-03-29T01:52:15.580Z,73.62
2018-03-29T01:54:41.927Z,73.07
2018-03-29T01:57:08.241Z,72.52
2018-03-29T01:59:34.579Z,71.59
2018-03-29T02:02:00.910Z,72.09
2018-03-29T02:04:27.460Z,71.39
2018-03-29T02:06:53.738Z,68.03
2018-03-29T02:09:20.781Z,68.13
2018-03-29T02:11:47.831Z,67.63
2018-03-29T02:14:14.939Z,67.44
2018-03-29T02:16:41.333Z,66.83
2018-03-29T02:19:07.612Z,67.74
2018-03-29T02:21:33.935Z,67.31
2018-03-29T02:24:00.237Z,67.25
2018-03-29T02:26:26.569Z,67.99
2018-03-29T02:28:53.826Z,68.66
2018-03-29T02:31:20.106Z,69.13
2018-03-29T02:33:46.380Z,69.86
2018-03-29T02:36:12.715Z,70.79
2018-03-29T02:38:39.053Z,70.79
2018-03-29T02:41:05.370Z,70.70
2018-03-29T02:43:31.683Z,69.27
2018-03-29T02:45:58.749Z,68.83
2018-03-29T02:48:25.078Z,68.48
2018-03-29T02:50:51.414Z,68.15
2018-03-29T02:53:17.712Z,67.96
2018-03-29T02:55:43.975Z,68.56
2018-03-29T02:58:10.241Z,67.21
2018-03-29T03:00:36.604Z,67.15
2018-03-29T03:03:03.621Z,67.60
2018-03-29T03:05:29.950Z,67.21
2018-03-29T03:07:56.226Z,66.92
2018-03-29T03:10:22.593Z,66.48
2018-03-29T03:12:48.891Z,65.70
2018-03-29T03:15:16.126Z,65.92
2018-03-29T03:17:43.156Z,65.63
2018-03-29T03:20:09.445Z,65.18
2018-03-29T03:22:35.722Z,65.15
2018-03-29T03:25:02.755Z,65.03
2018-03-29T03:27:29.047Z,65.29
2018-03-29T03:29:55.340Z,65.13
2018-03-29T03:32:22.407Z,64.93
2018-03-29T03:34:48.696Z,65.22
2018-03-29T03:37:15.016Z,64.70
2018-03-29T03:39:41.372Z,65.60
2018-03-29T03:42:07.679Z,65.33
2018-03-29T03:44:34.157Z,65.07
2018-03-29T03:47:00.519Z,65.07
2018-03-29T03:49:27.673Z,65.37
2018-03-29T03:51:53.941Z,64.53
2018-03-29T03:54:21.175Z,63.51
2018-03-29T03:56:47.479Z,63.90
2018-03-29T03:59:13.793Z,64.36
2018-03-29T04:01:40.152Z,64.69
2018-03-29T04:04:06.436Z,64.42
2018-03-29T04:06:32.741Z,63.77
2018-03-29T04:08:59.043Z,63.37
2018-03-29T04:11:25.372Z,63.28
2018-03-29T04:13:51.790Z,62.59
2018-03-29T04:16:18.406Z,62.06
2018-03-29T04:18:45.454Z,62.51
2018-03-29T04:21:11.739Z,62.02
2018-03-29T04:23:38.022Z,61.72
2018-03-29T04:26:05.041Z,61.25
2018-03-29T04:28:31.318Z,61.07
2018-03-29T04:30:57.822Z,61.57
2018-03-29T04:33:24.863Z,61.86
2018-03-29T04:35:51.848Z,61.96
2018-03-29T04:38:18.151Z,61.76
2018-03-29T04:40:45.190Z,62.15
2018-03-29T04:43:11.763Z,62.17
2018-03-29T04:45:38.097Z,62.71
2018-03-29T04:48:04.373Z,63.06
2018-03-29T04:50:30.657Z,62.65
2018-03-29T04:52:56.931Z,62.66
2018-03-29T04:55:23.226Z,62.91
2018-03-29T04:57:49.573Z,63.77
2018-03-29T05:00:15.907Z,63.97
2018-03-29T05:02:42.195Z,63.63
2018-03-29T05:05:08.446Z,62.76
2018-03-29T05:07:34.779Z,61.86
2018-03-29T05:10:01.068Z,61.77
2018-03-29T05:12:28.104Z,62.21
2018-03-29T05:14:54.410Z,61.02
2018-03-29T05:17:20.736Z,60.08
2018-03-29T05:19:47.045Z,60.03
2018-03-29T05:22:13.834Z,59.64
2018-03-29T05:24:40.090Z,59.56
2018-03-29T05:27:13.280Z,58.99
2018-03-29T05:29:39.544Z,59.62
2018-03-29T05:32:05.866Z,59.70
2018-03-29T05:34:32.126Z,59.72
2018-03-29T05:36:58.480Z,59.41
2018-03-29T05:39:24.751Z,57.72
2018-03-29T05:41:51.083Z,56.95
2018-03-29T05:44:17.396Z,56.66
2018-03-29T05:46:43.716Z,56.78
2018-03-29T05:49:09.965Z,56.76
2018-03-29T05:51:36.286Z,56.39
2018-03-29T05:54:02.573Z,56.68
2018-03-29T05:56:28.907Z,55.98
2018-03-29T05:58:55.210Z,56.03
2018-03-29T06:01:21.898Z,56.15
2018-03-29T06:03:48.143Z,56.92
2018-03-29T06:06:15.171Z,57.00
2018-03-29T06:08:41.554Z,57.50
2018-03-29T06:11:07.923Z,57.02
2018-03-29T06:13:34.326Z,57.33
2018-03-29T06:16:04.576Z,57.33
2018-03-29T06:18:31.744Z,57.24
2018-03-29T06:20:58.180Z,57.60
2018-03-29T06:23:24.459Z,57.98
2018-03-29T06:25:50.711Z,57.15
2018-03-29T06:28:17.014Z,58.14
2018-03-29T06:30:44.883Z,58.34
2018-03-29T06:33:11.198Z,59.06
2018-03-29T06:35:37.487Z,57.46
2018-03-29T06:38:03.856Z,57.53
2018-03-29T06:40:30.179Z,57.84
2018-03-29T06:42:57.263Z,56.75
2018-03-29T06:45:23.563Z,53.06
2018-03-29T06:47:50.649Z,53.16
2018-03-29T06:50:16.984Z,53.41
2018-03-29T06:52:43.260Z,53.38
2018-03-29T06:55:10.304Z,52.37
2018-03-29T06:57:36.586Z,52.93
2018-03-29T07:00:03.219Z,53.07
2018-03-29T07:02:29.520Z,52.69
2018-03-29T07:04:55.824Z,52.16
2018-03-29T07:07:22.142Z,51.64
2018-03-29T07:09:48.405Z,52.85
2018-03-29T07:12:14.692Z,53.31
2018-03-29T07:14:40.999Z,51.69
2018-03-29T07:17:07.295Z,50.71
2018-03-29T07:19:34.312Z,49.47
2018-03-29T07:22:00.663Z,49.10
2018-03-29T07:24:27.745Z,48.27
2018-03-29T07:26:54.061Z,48.05
2018-03-29T07:29:20.366Z,47.91
2018-03-29T07:31:46.664Z,48.12
2018-03-29T07:34:12.963Z,49.06
2018-03-29T07:36:39.242Z,48.94
2018-03-29T07:39:05.530Z,48.67
2018-03-29T07:41:31.851Z,49.68
2018-03-29T07:43:58.134Z,50.78
2018-03-29T07:46:24.395Z,50.44
2018-03-29T07:48:52.418Z,50.12
2018-03-29T07:51:18.716Z,50.45
2018-03-29T07:53:44.992Z,50.27
2018-03-29T07:56:11.305Z,50.18
2018-03-29T07:58:37.568Z,48.82
2018-03-29T08:01:03.882Z,48.14
2018-03-29T08:03:30.222Z,48.59
2018-03-29T08:05:56.530Z,47.92
2018-03-29T08:08:22.865Z,49.69
2018-03-29T08:10:49.119Z,50.37
2018-03-29T08:13:15.419Z,50.14
2018-03-29T08:15:41.768Z,51.73
2018-03-29T08:18:08.073Z,51.51
2018-03-29T08:20:34.365Z,51.78
2018-03-29T08:23:01.423Z,52.05
2018-03-29T08:25:27.777Z,52.18
2018-03-29T08:27:54.045Z,50.76
2018-03-29T08:30:20.354Z,50.83
2018-03-29T08:32:53.724Z,49.93
2018-03-29T08:35:20.100Z,49.97
2018-03-29T08:37:46.418Z,49.49
2018-03-29T08:40:12.737Z,49.59
2018-03-29T08:42:39.017Z,50.24
2018-03-29T08:45:06.081Z,49.52
2018-03-29T08:47:32.349Z,50.18
2018-03-29T08:49:58.709Z,49.13
2018-03-29T08:52:24.997Z,47.02
2018-03-29T08:54:51.271Z,47.49
2018-03-29T08:57:17.573Z,47.44
2018-03-29T08:59:43.888Z,46.27
2018-03-29T09:02:10.158Z,47.92
2018-03-29T09:04:36.624Z,47.48
2018-03-29T09:07:04.000Z,46.64
2018-03-29T09:09:30.300Z,46.38
2018-03-29T09:11:57.310Z,47.36
2018-03-29T09:14:23.594Z,46.09
2018-03-29T09:16:49.882Z,46.56
2018-03-29T09:19:16.148Z,46.42
2018-03-29T09:21:43.271Z,46.94
2018-03-29T09:24:09.529Z,46.21
2018-03-29T09:26:35.803Z,44.77
2018-03-29T09:29:02.067Z,43.73
2018-03-29T09:31:29.154Z,42.75
2018-03-29T09:33:55.424Z,43.33
2018-03-29T09:36:21.759Z,44.06
2018-03-29T09:38:48.051Z,43.73
2018-03-29T09:41:14.393Z,44.42
2018-03-29T09:43:40.691Z,44.83
2018-03-29T09:46:07.760Z,43.36
2018-03-29T09:48:34.059Z,42.99
2018-03-29T09:51:01.096Z,42.55
2018-03-29T09:53:28.152Z,42.38
2018-03-29T09:55:55.166Z,42.94
2018-03-29T09:58:21.466Z,42.41
2018-03-29T10:00:47.706Z,41.88
2018-03-29T10:03:13.939Z,41.78
2018-03-29T10:05:40.224Z,40.88
2018-03-29T10:08:06.655Z,43.03
2018-03-29T10:10:33.657Z,42.87
2018-03-29T10:12:59.920Z,42.88
2018-03-29T10:15:26.282Z,42.24
2018-03-29T10:17:52.572Z,42.55
2018-03-29T10:20:18.891Z,41.45
2018-03-29T10:22:45.215Z,41.64
2018-03-29T10:25:11.503Z,41.43
2018-03-29T10:27:37.739Z,42.01
2018-03-29T10:30:04.009Z,40.94
2018-03-29T10:32:30.311Z,39.83
2018-03-29T10:34:56.554Z,41.37
2018-03-29T10:37:22.860Z,42.28
2018-03-29T10:39:49.119Z,41.66
2018-03-29T10:42:15.926Z,40.66
2018-03-29T10:44:42.266Z,40.75
2018-03-29T10:47:08.584Z,39.93
2018-03-29T10:49:34.836Z,40.71
2018-03-29T10:52:01.174Z,40.99
2018-03-29T10:54:28.420Z,38.34
2018-03-29T10:56:54.730Z,37.88
2018-03-29T10:59:20.979Z,37.92
2018-03-29T11:01:47.309Z,37.97
2018-03-29T11:04:13.590Z,37.12
2018-03-29T11:06:39.969Z,37.14
2018-03-29T11:09:06.933Z,35.89
2018-03-29T11:11:34.000Z,35.94
2018-03-29T11:14:00.256Z,36.39
2018-03-29T11:16:27.317Z,37.36
2018-03-29T11:18:54.317Z,36.18
2018-03-29T11:21:21.464Z,35.55
2018-03-29T11:23:47.783Z,34.83
2018-03-29T11:26:14.109Z,36.26
2018-03-29T11:28:40.777Z,36.74
2018-03-29T11:31:07.124Z,36.22
2018-03-29T11:33:33.413Z,37.76
2018-03-29T11:35:59.712Z,38.40
2018-03-29T11:38:26.088Z,37.48
2018-03-29T11:40:52.440Z,35.24
2018-03-29T11:43:18.750Z,35.51
2018-03-29T11:45:45.060Z,36.37
2018-03-29T11:48:11.388Z,37.98
2018-03-29T11:50:37.676Z,37.22
2018-03-29T11:53:03.953Z,37.98
2018-03-29T11:55:30.197Z,38.48
2018-03-29T11:57:56.512Z,36.76
2018-03-29T12:00:22.828Z,35.69
2018-03-29T12:02:49.137Z,30.38
2018-03-29T12:05:16.162Z,29.58
2018-03-29T12:07:42.423Z,27.98
2018-03-29T12:10:09.511Z,26.73
2018-03-29T12:12:35.813Z,31.16
2018-03-29T12:15:02.133Z,30.87
2018-03-29T12:17:29.202Z,31.70
2018-03-29T12:19:55.507Z,31.77
2018-03-29T12:22:22.600Z,32.35
2018-03-29T12:24:48.929Z,31.34
2018-03-29T12:27:15.224Z,31.95
2018-03-29T12:29:42.875Z,34.52
2018-03-29T12:32:09.904Z,35.61
2018-03-29T12:34:37.212Z,36.20
2018-03-29T12:37:03.530Z,35.65
2018-03-29T12:39:29.860Z,34.76
2018-03-29T12:41:56.207Z,31.34
2018-03-29T12:44:22.519Z,29.72
2018-03-29T12:46:48.827Z,29.79
2018-03-29T12:49:15.139Z,32.16
2018-03-29T12:51:41.426Z,32.86
2018-03-29T12:54:14.816Z,32.69
2018-03-29T12:56:59.663Z,30.68
2018-03-29T12:59:26.749Z,26.40
2018-03-29T13:01:53.036Z,28.01
2018-03-29T13:04:20.179Z,30.49
2018-03-29T13:06:47.231Z,30.78
2018-03-29T13:09:14.310Z,32.02
2018-03-29T13:11:40.586Z,33.05
2018-03-29T13:14:06.908Z,33.07
2018-03-29T13:16:33.238Z,33.72
2018-03-29T13:18:59.604Z,35.58
2018-03-29T13:21:26.688Z,35.72
2018-03-29T13:23:53.008Z,35.53
2018-03-29T13:26:19.264Z,35.17
2018-03-29T13:28:45.632Z,36.21
2018-03-29T13:31:11.996Z,37.48
2018-03-29T13:33:38.355Z,38.41
2018-03-29T13:39:05.264Z,38.80
2018-03-29T13:41:35.456Z,38.43
2018-03-29T13:44:20.109Z,36.96
2018-03-29T13:46:46.497Z,36.29
2018-03-29T13:49:13.752Z,35.86
2018-03-29T13:51:40.808Z,36.08
2018-03-29T13:54:07.756Z,37.67
2018-03-29T13:56:34.118Z,37.77
2018-03-29T13:59:00.346Z,36.60
2018-03-29T14:01:26.656Z,36.32
2018-03-29T14:03:53.280Z,36.71
2018-03-29T14:06:19.621Z,37.75
2018-03-29T14:08:45.980Z,38.14
2018-03-29T14:11:12.428Z,37.92
2018-03-29T14:13:39.457Z,37.49
2018-03-29T14:16:05.774Z,37.74
2018-03-29T14:18:32.091Z,38.36
2018-03-29T14:20:58.379Z,38.39
2018-03-29T14:23:24.619Z,38.68
2018-03-29T14:25:50.863Z,38.69
2018-03-29T14:28:17.901Z,37.82
2018-03-29T14:30:44.974Z,38.06
2018-03-29T14:33:11.264Z,38.88
2018-03-29T14:35:37.553Z,38.50
2018-03-29T14:38:03.830Z,38.96
2018-03-29T14:40:30.132Z,38.55
2018-03-29T14:42:56.424Z,39.09
2018-03-29T14:45:22.756Z,38.68
2018-03-29T14:47:49.256Z,38.60
2018-03-29T14:50:16.521Z,38.86
2018-03-29T14:52:42.900Z,38.94
2018-03-29T14:55:09.287Z,38.67
2018-03-29T14:57:35.652Z,37.54
2018-03-29T15:00:02.039Z,37.86
2018-03-29T15:02:28.368Z,37.59
2018-03-29T15:04:54.669Z,36.66
2018-03-29T15:07:20.977Z,36.88
2018-03-29T15:09:48.191Z,39.34
2018-03-29T15:12:14.495Z,38.42
2018-03-29T15:14:41.157Z,37.08
2018-03-29T15:17:07.489Z,37.37
2018-03-29T15:19:33.867Z,36.91
2018-03-29T15:22:00.966Z,37.81
2018-03-29T15:24:27.612Z,36.75
2018-03-29T15:26:54.669Z,35.67
2018-03-29T15:29:21.692Z,35.20
2018-03-29T15:31:47.977Z,35.27
2018-03-29T15:34:15.213Z,35.38
2018-03-29T15:36:42.228Z,34.25
2018-03-29T15:39:08.541Z,34.38
2018-03-29T15:41:35.182Z,33.76
2018-03-29T15:44:01.453Z,33.85
2018-03-29T15:46:28.450Z,33.20
2018-03-29T15:48:54.868Z,33.77
2018-03-29T15:51:21.143Z,31.52
2018-03-29T15:53:48.277Z,30.79
2018-03-29T15:56:14.564Z,30.28
2018-03-29T15:58:40.881Z,30.35
2018-03-29T16:01:07.165Z,26.02
2018-03-29T16:03:34.445Z,21.75
2018-03-29T16:06:01.576Z,18.86
2018-03-29T16:08:27.854Z,19.05
2018-03-29T16:10:54.214Z,18.62
2018-03-29T16:13:20.504Z,19.22
2018-03-29T16:15:47.956Z,22.16
2018-03-29T16:18:14.989Z,26.18
2018-03-29T16:20:41.385Z,28.74
2018-03-29T16:23:07.632Z,30.64
2018-03-29T16:25:34.164Z,31.82
2018-03-29T16:28:00.447Z,33.56
2018-03-29T16:30:26.784Z,34.17
2018-03-29T16:32:53.075Z,35.27
2018-03-29T16:35:20.431Z,34.58
2018-03-29T16:37:46.779Z,34.80
2018-03-29T16:40:13.094Z,35.67
2018-03-29T16:42:40.893Z,35.99
2018-03-29T16:45:07.194Z,36.48
2018-03-29T16:47:34.248Z,36.54
2018-03-29T16:50:00.569Z,36.79
2018-03-29T16:52:27.936Z,37.07
2018-03-29T16:54:55.012Z,37.09
2018-03-29T16:57:21.320Z,37.29
2018-03-29T16:59:48.389Z,37.39
2018-03-29T17:02:14.686Z,37.74
2018-03-29T17:04:41.852Z,38.38
2018-03-29T17:07:08.893Z,38.52
2018-03-29T17:09:36.547Z,38.83
2018-03-29T17:12:04.595Z,39.36
2018-03-29T17:14:30.877Z,40.04
2018-03-29T17:16:57.210Z,40.42
2018-03-29T17:19:23.557Z,40.99
2018-03-29T17:21:49.892Z,41.73
2018-03-29T17:24:16.198Z,42.25
2018-03-29T17:26:42.507Z,42.44
2018-03-29T17:29:09.513Z,42.73
2018-03-29T17:31:35.892Z,43.16
2018-03-29T17:34:02.950Z,43.66
2018-03-29T17:36:29.226Z,44.06
2018-03-29T17:38:55.499Z,44.05
2018-03-29T17:41:22.579Z,44.24
2018-03-29T17:43:48.884Z,43.98
2018-03-29T17:46:15.216Z,43.91
2018-03-29T17:48:41.503Z,43.89
2018-03-29T17:51:07.749Z,43.77
2018-03-29T17:53:34.279Z,43.66
2018-03-29T17:56:00.614Z,44.10
2018-03-29T17:58:26.879Z,43.95
2018-03-29T18:00:53.955Z,43.40
2018-03-29T18:03:20.284Z,43.93
2018-03-29T18:05:46.607Z,43.85
2018-03-29T18:08:12.893Z,44.28
2018-03-29T18:10:39.280Z,44.43
2018-03-29T18:13:05.644Z,44.94
2018-03-29T18:15:32.080Z,45.11
2018-03-29T18:17:58.480Z,45.52
2018-03-29T18:20:24.852Z,46.18
2018-03-29T18:22:51.266Z,46.36
2018-03-29T18:25:17.575Z,46.09
2018-03-29T18:27:45.089Z,45.68
2018-03-29T18:30:12.087Z,45.77
2018-03-29T18:32:38.431Z,45.93
2018-03-29T18:35:04.773Z,46.80
2018-03-29T18:37:31.239Z,47.84
2018-03-29T18:39:59.183Z,48.37
2018-03-29T18:42:25.533Z,47.81
2018-03-29T18:44:51.812Z,47.99
2018-03-29T18:47:18.143Z,48.20
2018-03-29T18:49:44.428Z,48.68
2018-03-29T18:52:11.494Z,48.94
2018-03-29T18:54:38.557Z,48.93
2018-03-29T18:57:04.846Z,48.79
2018-03-29T18:59:31.143Z,48.82
2018-03-29T19:01:57.454Z,48.84
2018-03-29T19:04:23.765Z,48.94
2018-03-29T19:06:50.092Z,49.17
2018-03-29T19:09:16.442Z,49.42
2018-03-29T19:11:42.801Z,49.07
2018-03-29T19:14:09.379Z,48.84
2018-03-29T19:16:36.415Z,48.50
2018-03-29T19:19:02.726Z,49.83
2018-03-29T19:21:29.153Z,50.83
2018-03-29T19:23:56.380Z,53.93
2018-03-29T19:26:22.693Z,55.44
2018-03-29T19:28:49.049Z,55.85
2018-03-29T19:31:15.386Z,56.04
2018-03-29T19:33:41.680Z,55.28
2018-03-29T19:36:08.032Z,54.94
2018-03-29T19:38:34.352Z,54.53
2018-03-29T19:41:00.647Z,55.06
2018-03-29T19:43:27.020Z,55.45
2018-03-29T19:45:53.377Z,56.18
2018-03-29T19:48:19.666Z,57.26
2018-03-29T19:50:45.926Z,57.86
2018-03-29T19:53:12.269Z,58.51
2018-03-29T19:55:38.568Z,59.10
2018-03-29T19:58:04.853Z,59.99
2018-03-29T20:00:31.158Z,60.38
2018-03-29T20:02:57.491Z,60.51
2018-03-29T20:05:24.633Z,61.01
2018-03-29T20:07:50.919Z,61.07
2018-03-29T20:10:17.969Z,60.96
2018-03-29T20:12:45.098Z,61.60
2018-03-29T20:15:11.363Z,62.20
2018-03-29T20:17:38.467Z,62.99
2018-03-29T20:20:05.511Z,63.34
2018-03-29T20:22:31.894Z,62.90
2018-03-29T20:24:58.155Z,62.34
2018-03-29T20:27:24.498Z,62.09
2018-03-29T20:29:50.780Z,62.69
2018-03-29T20:32:17.864Z,62.60
2018-03-29T20:34:44.170Z,63.02
2018-03-29T20:37:10.485Z,63.55
2018-03-29T20:39:37.548Z,64.61
2018-03-29T20:42:03.888Z,65.06
2018-03-29T20:44:30.117Z,65.60
2018-03-29T20:46:56.459Z,66.06
2018-03-29T20:49:22.729Z,66.03
2018-03-29T20:51:49.020Z,66.33
2018-03-29T20:54:16.085Z,66.72
2018-03-29T20:56:42.371Z,67.04
2018-03-29T20:59:09.447Z,66.97
2018-03-29T21:01:35.739Z,66.82
2018-03-29T21:04:02.787Z,66.58
2018-03-29T21:06:29.832Z,66.22
2018-03-29T21:08:56.842Z,66.48
2018-03-29T21:11:23.176Z,66.29
2018-03-29T21:13:49.470Z,66.30
2018-03-29T21:16:15.803Z,66.00
2018-03-29T21:18:42.134Z,66.06
2018-03-29T21:21:08.450Z,66.03
2018-03-29T21:23:35.488Z,66.61
2018-03-29T21:26:02.512Z,66.90
2018-03-29T21:28:28.800Z,67.13
2018-03-29T21:30:55.077Z,67.07
2018-03-29T21:33:21.407Z,67.44
2018-03-29T21:35:48.874Z,67.53
2018-03-29T21:38:16.220Z,67.81
2018-03-29T21:40:42.463Z,68.17
2018-03-29T21:43:09.544Z,68.30
2018-03-29T21:45:35.790Z,68.42
2018-03-29T21:48:02.096Z,68.07
2018-03-29T21:50:28.436Z,68.13
2018-03-29T21:52:54.692Z,67.91
2018-03-29T21:55:20.989Z,68.02
2018-03-29T21:57:47.356Z,68.17
2018-03-29T22:00:13.634Z,68.22
2018-03-29T22:02:40.638Z,68.04
2018-03-29T22:05:06.945Z,68.10
2018-03-29T22:07:33.228Z,67.96
2018-03-29T22:09:59.551Z,67.87
2018-03-29T22:12:25.837Z,67.88
2018-03-29T22:14:52.138Z,67.87
2018-03-29T22:17:18.456Z,67.82
2018-03-29T22:19:44.760Z,68.03
2018-03-29T22:22:11.102Z,67.88
2018-03-29T22:24:37.376Z,68.13
2018-03-29T22:27:03.681Z,68.13
2018-03-29T22:29:30.748Z,68.08
2018-03-29T22:31:57.061Z,67.74
2018-03-29T22:34:24.149Z,67.63
2018-03-29T22:36:50.427Z,67.60
2018-03-29T22:39:16.791Z,67.54
2018-03-29T22:41:43.104Z,67.53
2018-03-29T22:44:10.199Z,67.40
2018-03-29T22:46:36.456Z,67.16
2018-03-29T22:49:02.785Z,67.41
2018-03-29T22:51:29.092Z,67.16
2018-03-29T22:53:55.417Z,67.48
2018-03-29T22:56:21.748Z,67.53
2018-03-29T22:58:48.012Z,67.32
2018-03-29T23:01:14.272Z,67.11
2018-03-29T23:03:41.281Z,67.02
2018-03-29T23:06:07.617Z,66.77
2018-03-29T23:08:33.877Z,66.64
2018-03-29T23:11:00.925Z,66.31
2018-03-29T23:13:27.938Z,65.96
2018-03-29T23:15:54.179Z,65.90
2018-03-29T23:18:20.462Z,66.01
2018-03-29T23:20:46.767Z,65.74
2018-03-29T23:23:13.791Z,65.77
2018-03-29T23:25:40.116Z,65.79
2018-03-29T23:28:06.355Z,66.00
2018-03-29T23:30:32.663Z,66.80
2018-03-29T23:32:59.729Z,66.84
2018-03-29T23:35:25.990Z,67.63
2018-03-29T23:37:52.684Z,67.70
2018-03-29T23:40:18.946Z,67.61
2018-03-29T23:42:45.966Z,67.79
2018-03-29T23:45:12.282Z,67.52
2018-03-29T23:47:38.541Z,67.45
2018-03-29T23:50:04.841Z,65.94
2018-03-29T23:52:31.166Z,65.64
2018-03-29T23:54:57.467Z,65.41
2018-03-29T23:57:23.835Z,65.24
2018-03-29T23:59:50.946Z,64.92
